Aérodrome :
LOGIN :

S'inscrire | Disclaimer

   EN    FR    IT 

 










Légende :    VFR   VFR Marginal   IFR   IFR Intensif   IFR Très Intensif
Visi : 
Plafond : 
>= 8 km
>= 3000ft
5 à 8 km
1000 à 3000 ft
1500m à 5 km
500 à 1000 ft
800 à 1500m
200 à 500 ft
< 800m
< 200 ft
Symboles :   Orages  Brouillard  Fortes neiges  Fortes précipitations  Vent > 20 kt
SIGMETs :   Divers  Orages  Givrage  Turbulence  Onde Orograph.  Cendres Volcan.







- Altitude de l'aérodrome : 16 ft
- Code IATA : AAE


DABB - Annaba-Rabah Bitat

DERNIER METAR :
  • 210230Z 18003KT 0400 FG FEW010 18/18 Q1015

METARs EXPIRÉS :
  • 210200Z VRB02KT 0800 FG FEW010 18/18 Q1015
  • 210130Z VRB02KT 0800 FG FEW010 17/17 Q1015
  • 210100Z 06003KT 6000 FEW026 18/18 Q1016
  • 210030Z 06003KT 6000 FEW026 18/18 Q1016
  • 210000Z 05004KT 7000 FEW026 19/18 Q1016

TAF TAF DABB
Valide du 21 à 00h jusqu'au 22 à 00h UTC


202300Z 2100/2124 14008KT 9999 FEW023
PROB40
TEMPO 2101/2108 2000 BR BKN008
BECMG 2110/2112 04012KT
PROB30
TEMPO 2112/2122 FEW020TCU
BECMG 2122/2124 VRB02KT
Pas de NOTAMs connus pour ce terrain.



MET'MAP, la Météo Aéronautique d'un coup d'oeil ! - Copyright ORBIFLY Décembre 2007 - Disclaimer

ORBIFLY MET'MAP TEAM :

Programmation & Développement : Alexandra Zaïnal
Conception & Développement : Baudouin d'Aumeries
Co-Programmation & Développement : Marc-Olivier Méhu
Soutien technique & logistique : Manuel Goepfert

Contact : metmap@orbifly.com




SOURCES & CREDITS :

   NOAA